Time;durP1;ratioP1;P1;durP2;ratioP2;P2;SDS_P1;SDS_P2;PMS_P1;PMS_P2;Temp;Humidity;BMP_temperature;BMP_pressure;BME280_temperature;BME280_humidity;BME280_pressure;Samples;Min_cycle;Max_cycle;Signal;HPM_P1;HPM_P2
2020/12/05 00:01:51;;;;;;;38.83;18.77;;;;;;;-3.33;86.27;92927.17;1820775;78;21190;-80
2020/12/05 00:04:19;;;;;;;51.60;22.73;;;;;;;-3.38;86.13;92932.68;1795244;79;21165;-77
2020/12/05 00:06:47;;;;;;;41.77;21.73;;;;;;;-3.45;86.07;92931.84;1821473;78;22180;-77
2020/12/05 00:09:16;;;;;;;36.40;17.60;;;;;;;-3.48;86.45;92939.67;1821975;78;21738;-79
2020/12/05 00:11:44;;;;;;;36.37;17.60;;;;;;;-3.48;86.79;92937.02;1821652;78;21180;-79
2020/12/05 00:14:12;;;;;;;28.33;14.03;;;;;;;-3.48;87.00;92936.46;1819265;78;21477;-77
2020/12/05 00:16:40;;;;;;;31.23;15.57;;;;;;;-3.43;87.33;92937.60;1810081;76;21462;-77
2020/12/05 00:19:11;;;;;;;39.13;19.07;;;;;;;-3.40;87.22;92941.52;1827244;78;21632;-78
2020/12/05 00:21:38;;;;;;;38.47;19.50;;;;;;;-3.40;87.17;92946.83;1811859;78;21628;-79
2020/12/05 00:24:07;;;;;;;35.13;16.70;;;;;;;-3.40;87.15;92945.50;1809154;78;21185;-78
2020/12/05 00:26:35;;;;;;;33.20;16.30;;;;;;;-3.39;86.78;92954.25;1796403;79;21186;-77
2020/12/05 00:29:03;;;;;;;39.60;18.43;;;;;;;-3.42;86.96;92957.80;1782051;77;21241;-77
2020/12/05 00:31:31;;;;;;;29.37;15.17;;;;;;;-3.43;86.95;92952.78;1809876;79;21178;-80
2020/12/05 00:34:01;;;;;;;31.80;15.87;;;;;;;-3.44;87.10;92952.00;1825060;78;21224;-79
2020/12/05 00:36:30;;;;;;;26.90;14.73;;;;;;;-3.46;87.25;92956.06;1813450;77;21153;-77
2020/12/05 00:38:58;;;;;;;29.83;14.70;;;;;;;-3.45;87.90;92960.31;1799731;77;21656;-78
2020/12/05 00:41:26;;;;;;;41.20;19.83;;;;;;;-3.42;87.57;92952.47;1801593;76;21207;-77
2020/12/05 00:43:56;;;;;;;38.70;18.23;;;;;;;-3.40;87.43;92958.80;1822722;78;21181;-80
2020/12/05 00:46:24;;;;;;;43.13;18.17;;;;;;;-3.42;86.82;92959.67;1783765;79;21435;-79
2020/12/05 00:48:53;;;;;;;34.93;17.00;;;;;;;-3.47;86.82;92960.61;1806610;78;21739;-79
2020/12/05 00:51:21;;;;;;;20.50;11.47;;;;;;;-3.48;86.89;92964.92;1802979;79;22986;-79
2020/12/05 00:53:50;;;;;;;32.83;15.90;;;;;;;-3.46;87.60;92971.49;1818977;77;21437;-79
2020/12/05 00:56:22;;;;;;;21.37;10.03;;;;;;;-3.40;87.38;92977.95;1843114;77;21617;-77
2020/12/05 00:58:50;;;;;;;35.40;16.93;;;;;;;-3.39;87.16;92974.97;1837440;76;21165;-80
2020/12/05 01:01:18;;;;;;;31.80;16.17;;;;;;;-3.42;86.98;92979.06;1861112;77;21135;-79
2020/12/05 01:03:47;;;;;;;32.27;15.00;;;;;;;-3.44;86.73;92989.77;1840885;77;22488;-80
2020/12/05 01:06:15;;;;;;;30.50;16.70;;;;;;;-3.45;86.56;92996.20;1861581;76;21210;-78
2020/12/05 01:08:43;;;;;;;33.43;16.37;;;;;;;-3.50;86.49;92998.48;1883559;76;21953;-79
2020/12/05 01:11:18;;;;;;;36.03;18.23;;;;;;;-3.51;86.60;93000.11;1879989;76;21183;-80
2020/12/05 01:13:46;;;;;;;31.85;15.40;;;;;;;-3.54;86.56;92990.11;1838347;77;21168;-79
2020/12/05 01:16:17;;;;;;;34.53;16.53;;;;;;;-3.56;86.79;92976.38;1843208;77;22546;-79
2020/12/05 01:18:45;;;;;;;31.80;14.97;;;;;;;-3.57;86.76;92966.81;1857402;75;21236;-81
2020/12/05 01:21:16;;;;;;;31.60;15.83;;;;;;;-3.56;86.69;92969.73;1848016;77;21586;-81
2020/12/05 01:23:45;;;;;;;18.80;11.03;;;;;;;-3.59;86.53;92970.36;1851559;75;21158;-82
2020/12/05 01:26:13;;;;;;;20.83;10.20;;;;;;;-3.61;87.05;92969.36;1880527;76;21167;-79
2020/12/05 01:28:41;;;;;;;19.97;10.37;;;;;;;-3.61;87.61;92961.91;1844463;77;22134;-78
2020/12/05 01:31:11;;;;;;;18.23;10.27;;;;;;;-3.55;87.91;92977.92;1833572;77;21159;-79
2020/12/05 01:33:39;;;;;;;28.07;13.40;;;;;;;-3.51;87.73;92966.88;1851851;77;21611;-78
2020/12/05 01:36:07;;;;;;;27.07;14.10;;;;;;;-3.51;87.44;92962.34;1833143;77;21126;-80
2020/12/05 01:38:36;;;;;;;20.93;11.33;;;;;;;-3.54;86.91;92953.67;1811507;75;21143;-81
2020/12/05 01:41:05;;;;;;;27.67;14.93;;;;;;;-3.61;86.90;92955.27;1854808;77;22417;-78
2020/12/05 01:43:39;;;;;;;24.73;12.67;;;;;;;-3.70;86.97;92961.38;1801973;79;21188;-83
2020/12/05 01:46:05;;;;;;;18.40;8.93;;;;;;;-3.72;86.97;92957.50;1811848;79;21181;-79
2020/12/05 01:48:34;;;;;;;15.40;8.37;;;;;;;-3.74;87.21;92953.81;1830012;76;21137;-78
2020/12/05 01:51:03;;;;;;;20.17;12.37;;;;;;;-3.73;87.73;92950.61;1840633;77;21177;-78
2020/12/05 01:53:31;;;;;;;28.37;13.37;;;;;;;-3.70;87.62;92948.10;1842050;77;21300;-81
2020/12/05 01:55:59;;;;;;;19.37;9.20;;;;;;;-3.71;87.30;92953.74;1844129;77;21137;-81
2020/12/05 01:58:28;;;;;;;12.27;7.20;;;;;;;-3.75;87.14;92952.81;1731953;80;21132;-78
2020/12/05 02:00:56;;;;;;;15.83;8.97;;;;;;;-3.82;87.73;92951.97;1785663;80;21215;-79
2020/12/05 02:03:24;;;;;;;9.43;4.90;;;;;;;-3.84;88.01;92952.05;1798140;78;21112;-79
2020/12/05 02:06:21;;;;;;;10.67;6.77;;;;;;;-3.82;88.69;92949.31;1821501;78;21202;-77
2020/12/05 02:08:58;;;;;;;9.80;5.47;;;;;;;-3.77;88.90;92956.33;1800819;78;21213;-81
2020/12/05 02:11:29;;;;;;;8.03;4.60;;;;;;;-3.77;88.68;92955.77;1824751;78;21467;-78
2020/12/05 02:14:01;;;;;;;7.30;4.60;;;;;;;-3.80;88.88;92957.77;1760697;80;21186;-79
2020/12/05 02:16:29;;;;;;;11.67;6.90;;;;;;;-3.81;89.11;92961.48;1817623;78;21147;-78
2020/12/05 02:18:57;;;;;;;28.90;16.50;;;;;;;-3.79;89.20;92959.31;1824970;78;21634;-78
2020/12/05 02:21:28;;;;;;;28.17;14.37;;;;;;;-3.80;88.50;92960.94;1823429;78;21539;-79
2020/12/05 02:23:57;;;;;;;23.93;12.70;;;;;;;-3.83;88.09;92955.73;1791494;78;21174;-82
2020/12/05 02:26:27;;;;;;;21.27;10.53;;;;;;;-3.84;87.85;92954.70;1818197;78;21179;-79
2020/12/05 02:28:56;;;;;;;27.50;14.67;;;;;;;-3.88;87.54;92953.22;1808350;79;21177;-81
2020/12/05 02:31:25;;;;;;;14.00;8.40;;;;;;;-3.94;87.82;92953.17;1848293;77;21205;-79
2020/12/05 02:33:54;;;;;;;9.90;6.07;;;;;;;-3.95;87.98;92948.94;1832503;77;21176;-79
2020/12/05 02:36:22;;;;;;;10.50;5.73;;;;;;;-3.98;88.01;92952.25;1830726;77;21092;-78
2020/12/05 02:39:05;;;;;;;10.57;6.37;;;;;;;-3.98;88.31;92952.25;1846116;77;21111;-79
2020/12/05 02:41:39;;;;;;;30.73;16.70;;;;;;;-4.02;87.95;92959.29;1849039;77;21167;-81
2020/12/05 02:44:07;;;;;;;34.37;17.50;;;;;;;-4.11;87.46;92954.52;1838529;77;21602;-80
2020/12/05 02:46:35;;;;;;;33.67;16.87;;;;;;;-4.18;87.56;92957.09;1851453;77;21207;-80
2020/12/05 02:49:03;;;;;;;28.13;14.57;;;;;;;-4.22;87.47;92954.06;1838586;77;21137;-82
2020/12/05 02:51:31;;;;;;;34.20;18.40;;;;;;;-4.27;87.53;92955.55;1848319;76;21641;-78
2020/12/05 02:54:01;;;;;;;35.60;18.90;;;;;;;-4.30;87.62;92962.27;1871916;76;21131;-78
2020/12/05 02:56:30;;;;;;;34.80;18.60;;;;;;;-4.32;87.58;92970.33;1880356;76;22354;-80
2020/12/05 02:58:58;;;;;;;28.57;15.80;;;;;;;-4.32;87.63;92967.67;1842337;77;21165;-79
2020/12/05 03:01:26;;;;;;;28.97;14.73;;;;;;;-4.31;87.75;92975.31;1844608;77;21137;-78
2020/12/05 03:03:55;;;;;;;25.93;13.23;;;;;;;-4.28;87.96;92973.36;1828250;77;21164;-83
2020/12/05 03:06:23;;;;;;;27.20;13.70;;;;;;;-4.20;88.07;92971.80;1820269;77;21351;-81
2020/12/05 03:08:51;;;;;;;25.93;13.80;;;;;;;-4.12;87.99;92979.52;1828339;78;21652;-80
2020/12/05 03:11:19;;;;;;;25.97;12.93;;;;;;;-4.07;87.85;92982.78;1810032;79;21177;-81
2020/12/05 03:13:47;;;;;;;19.77;11.47;;;;;;;-4.04;87.63;92982.70;1850667;77;21165;-81
2020/12/05 03:16:15;;;;;;;17.23;9.93;;;;;;;-4.02;87.75;92993.27;1863890;76;21155;-81
2020/12/05 03:18:44;;;;;;;9.93;4.90;;;;;;;-3.98;87.67;92990.20;1846577;76;21691;-80
2020/12/05 03:21:13;;;;;;;22.17;11.33;;;;;;;-3.95;88.29;92993.57;1844437;77;21235;-81
2020/12/05 03:23:45;;;;;;;21.60;11.97;;;;;;;-3.85;88.87;92995.66;1816775;78;21570;-81
2020/12/05 03:26:11;;;;;;;33.53;17.43;;;;;;;-3.80;88.63;92986.98;1812698;78;21649;-82
2020/12/05 03:28:39;;;;;;;35.57;17.97;;;;;;;-3.76;88.13;92990.57;1868937;74;21210;-80
2020/12/05 03:31:11;;;;;;;25.00;14.80;;;;;;;-3.77;87.66;92992.20;1866411;76;21168;-82
2020/12/05 03:33:40;;;;;;;17.23;10.83;;;;;;;-3.82;87.27;92977.20;1854514;77;21178;-81
2020/12/05 03:36:09;;;;;;;14.80;8.87;;;;;;;-3.87;87.05;92991.99;1852080;76;21134;-82
2020/12/05 03:38:46;;;;;;;20.17;10.03;;;;;;;-3.94;87.14;92985.05;1862448;77;21137;-80
2020/12/05 03:41:11;;;;;;;36.30;17.43;;;;;;;-3.97;87.38;92989.66;1791201;79;21608;-79
2020/12/05 03:43:39;;;;;;;34.37;17.17;;;;;;;-4.00;87.07;92991.61;1865360;74;21157;-78
2020/12/05 03:46:07;;;;;;;13.57;8.00;;;;;;;-4.06;86.86;92993.66;1875609;76;22068;-79
2020/12/05 03:48:35;;;;;;;9.23;6.37;;;;;;;-4.13;87.16;92993.91;1843134;77;21160;-80
2020/12/05 03:51:03;;;;;;;6.67;4.40;;;;;;;-4.17;87.35;92989.21;1817823;77;21143;-81
2020/12/05 03:53:31;;;;;;;6.00;3.93;;;;;;;-4.22;87.59;92996.54;1845316;77;21181;-80
2020/12/05 03:55:59;;;;;;;6.03;3.50;;;;;;;-4.27;88.27;92995.38;1811390;77;21144;-81
2020/12/05 03:58:28;;;;;;;31.00;15.13;;;;;;;-4.30;88.96;92996.77;1799922;79;22140;-80
2020/12/05 04:00:56;;;;;;;31.83;16.23;;;;;;;-4.31;88.70;92999.75;1803182;79;21571;-81
2020/12/05 04:03:25;;;;;;;30.93;15.50;;;;;;;-4.36;88.10;92998.05;1811088;78;21601;-78
2020/12/05 04:05:54;;;;;;;33.30;16.60;;;;;;;-4.44;87.88;92992.16;1810164;79;21175;-81
2020/12/05 04:08:22;;;;;;;39.23;19.47;;;;;;;-4.51;87.99;92991.87;1779492;80;21656;-78
2020/12/05 04:10:50;;;;;;;36.60;18.60;;;;;;;-4.53;88.03;93000.12;1756616;80;22469;-79
2020/12/05 04:13:18;;;;;;;38.20;19.57;;;;;;;-4.54;87.81;93001.77;1761718;80;21193;-81
2020/12/05 04:15:47;;;;;;;25.20;13.47;;;;;;;-4.60;87.11;92995.82;1780559;79;21162;-80
2020/12/05 04:18:19;;;;;;;31.57;16.17;;;;;;;-4.69;87.52;92999.02;1801738;79;21165;-80
2020/12/05 04:20:45;;;;;;;32.30;16.90;;;;;;;-4.68;88.84;93002.68;1786244;80;21216;-80
2020/12/05 04:23:13;;;;;;;42.83;20.70;;;;;;;-4.64;88.98;93008.14;1784730;79;21382;-79
2020/12/05 04:25:43;;;;;;;26.23;13.83;;;;;;;-4.55;88.91;93003.65;1791971;79;21162;-79
2020/12/05 04:28:12;;;;;;;20.60;11.27;;;;;;;-4.53;89.02;93013.39;1802121;79;21703;-81
2020/12/05 04:30:40;;;;;;;11.63;6.70;;;;;;;-4.46;89.27;93016.92;1795152;79;21368;-81
2020/12/05 04:33:10;;;;;;;37.27;16.50;;;;;;;-4.45;89.37;93012.61;1759133;80;21174;-78
2020/12/05 04:35:41;;;;;;;27.70;14.80;;;;;;;-4.42;89.53;93019.95;1784545;80;21636;-77
2020/12/05 04:38:08;;;;;;;51.23;23.10;;;;;;;-4.40;89.43;93016.46;1784629;80;21186;-78
2020/12/05 04:40:36;;;;;;;52.83;25.70;;;;;;;-4.38;88.78;93020.67;1775905;80;21689;-78
2020/12/05 04:43:04;;;;;;;56.77;26.37;;;;;;;-4.44;88.39;93017.38;1786914;79;21232;-76
2020/12/05 04:45:33;;;;;;;51.17;23.00;;;;;;;-4.48;88.33;93024.39;1801540;79;21192;-77
2020/12/05 04:48:01;;;;;;;64.90;28.13;;;;;;;-4.53;87.87;93025.33;1772841;80;21456;-77
2020/12/05 04:50:29;;;;;;;60.73;28.93;;;;;;;-4.61;87.83;93035.39;1784347;80;21249;-80
2020/12/05 04:53:11;;;;;;;49.73;21.40;;;;;;;-4.66;87.71;93036.33;1780740;80;21177;-80
2020/12/05 04:55:41;;;;;;;54.03;25.87;;;;;;;-4.69;87.92;93032.19;1775342;79;21459;-80
2020/12/05 04:58:20;;;;;;;46.63;22.17;;;;;;;-4.71;88.29;93027.17;1777534;78;21154;-78
2020/12/05 05:00:54;;;;;;;46.27;20.80;;;;;;;-4.71;88.09;93029.82;1779693;80;21636;-82
2020/12/05 05:03:26;;;;;;;66.97;31.30;;;;;;;-4.71;88.01;93033.80;1759909;80;21123;-82
2020/12/05 05:05:57;;;;;;;67.13;32.70;;;;;;;-4.75;87.82;93023.58;1784851;80;21221;-80
2020/12/05 05:08:26;;;;;;;71.70;34.20;;;;;;;-4.75;87.85;93029.43;1784830;79;21218;-80
2020/12/05 05:11:11;;;;;;;57.93;27.70;;;;;;;-4.78;87.75;93027.39;1781531;80;21165;-78
2020/12/05 05:13:56;;;;;;;75.27;37.23;;;;;;;-4.81;87.76;93026.16;1784747;79;21188;-80
2020/12/05 05:16:26;;;;;;;58.10;28.10;;;;;;;-4.84;87.62;93033.39;1811502;77;21177;-79
2020/12/05 05:18:53;;;;;;;44.10;22.30;;;;;;;-4.83;87.74;93030.20;1849532;77;21191;-79
2020/12/05 05:21:39;;;;;;;38.27;18.57;;;;;;;-4.84;87.61;93028.64;1824805;76;21170;-77
2020/12/05 05:24:19;;;;;;;54.27;28.30;;;;;;;-4.85;87.87;93028.38;1820310;78;21172;-78
2020/12/05 05:27:06;;;;;;;59.80;30.17;;;;;;;-4.87;88.05;93034.00;1787304;80;21940;-79
2020/12/05 05:29:41;;;;;;;60.23;29.70;;;;;;;-4.85;88.13;93036.34;1793625;79;22179;-80
2020/12/05 05:32:16;;;;;;;67.15;31.95;;;;;;;-4.82;88.06;93039.16;1820052;78;21142;-80
2020/12/05 05:34:42;;;;;;;64.40;33.10;;;;;;;-4.82;87.97;93033.85;1828926;78;21712;-81
2020/12/05 05:37:14;;;;;;;68.00;35.57;;;;;;;-4.82;87.95;93033.08;1829945;78;21161;-81
2020/12/05 05:40:08;;;;;;;70.40;32.77;;;;;;;-4.83;87.98;93041.58;1831590;78;21698;-79
2020/12/05 05:42:41;;;;;;;47.83;25.07;;;;;;;-4.83;87.92;93043.45;1812615;79;21158;-78
2020/12/05 05:45:24;;;;;;;34.83;19.60;;;;;;;-4.85;88.14;93042.97;1799710;79;21643;-80
2020/12/05 05:48:07;;;;;;;54.67;30.63;;;;;;;-4.84;88.58;93041.90;1868040;76;21188;-79
2020/12/05 05:50:38;;;;;;;58.23;30.10;;;;;;;-4.77;89.23;93046.99;1818477;76;21183;-83
2020/12/05 05:53:10;;;;;;;96.43;59.37;;;;;;;-4.74;88.94;93049.03;1787198;79;21430;-82
2020/12/05 05:55:46;;;;;;;52.73;28.80;;;;;;;-4.71;88.78;93051.59;1786196;77;21195;-77
2020/12/05 05:58:20;;;;;;;49.77;26.07;;;;;;;-4.66;89.03;93054.12;1824381;75;21141;-78
2020/12/05 06:00:53;;;;;;;44.80;26.37;;;;;;;-4.64;88.60;93048.72;1878611;75;21179;-79
2020/12/05 06:03:26;;;;;;;42.23;23.50;;;;;;;-4.64;88.37;93053.25;1878255;76;21133;-81
2020/12/05 06:05:57;;;;;;;28.80;16.30;;;;;;;-4.65;88.33;93062.31;1816890;76;22074;-79
2020/12/05 06:08:27;;;;;;;17.00;9.93;;;;;;;-4.64;88.30;93063.31;1785293;78;21175;-79
2020/12/05 06:11:01;;;;;;;37.53;21.43;;;;;;;-4.68;88.45;93067.68;1788021;78;21165;-78
2020/12/05 06:13:31;;;;;;;27.67;15.70;;;;;;;-4.63;88.71;93065.42;1830983;78;21161;-80
2020/12/05 06:16:00;;;;;;;74.90;39.07;;;;;;;-4.61;88.53;93057.95;1836990;77;21365;-78
2020/12/05 06:18:30;;;;;;;68.33;35.43;;;;;;;-4.59;88.31;93076.20;1837613;78;21193;-82
2020/12/05 06:20:59;;;;;;;50.07;27.70;;;;;;;-4.60;87.73;93070.66;1836993;78;21197;-77
2020/12/05 06:23:51;;;;;;;50.63;27.20;;;;;;;-4.60;87.71;93075.97;1817367;77;21258;-75
2020/12/05 06:26:27;;;;;;;54.70;29.60;;;;;;;-4.56;87.69;93074.27;1787616;79;21195;-81
2020/12/05 06:29:01;;;;;;;47.57;28.07;;;;;;;-4.54;87.41;93073.42;1832577;77;21171;-82
2020/12/05 06:31:43;;;;;;;46.13;26.00;;;;;;;-4.54;87.20;93069.44;1811685;77;23024;-76
2020/12/05 06:34:36;;;;;;;78.60;41.67;;;;;;;-4.53;87.19;93077.08;1835364;77;21191;-78
2020/12/05 06:37:04;;;;;;;57.00;29.73;;;;;;;-4.53;87.01;93085.59;1760303;78;21583;-80
2020/12/05 06:39:33;;;;;;;47.33;24.40;;;;;;;-4.52;87.04;93089.25;1816636;78;21466;-81
2020/12/05 06:42:01;;;;;;;43.30;22.93;;;;;;;-4.52;86.92;93084.50;1816786;78;21179;-81
2020/12/05 06:44:36;;;;;;;56.67;29.10;;;;;;;-4.56;86.98;93080.34;1816674;78;21368;-79
2020/12/05 06:47:11;;;;;;;42.13;23.57;;;;;;;-4.52;87.07;93087.15;1819856;77;21665;-76
2020/12/05 06:49:43;;;;;;;36.53;20.47;;;;;;;-4.23;87.59;93091.89;1819461;75;21507;-78
2020/12/05 06:52:30;;;;;;;44.60;23.73;;;;;;;-3.74;87.20;93081.36;1819050;78;21361;-75
2020/12/05 06:55:13;;;;;;;18.30;10.80;;;;;;;-3.22;86.62;93084.50;1781165;74;21175;-80
2020/12/05 06:57:42;;;;;;;50.03;29.90;;;;;;;-2.67;86.35;93073.05;1873559;76;21184;-79
2020/12/05 07:00:24;;;;;;;36.10;20.70;;;;;;;-2.14;86.24;93084.16;1850698;76;21178;-80
2020/12/05 07:02:59;;;;;;;32.93;16.90;;;;;;;-1.44;85.35;93089.75;1827381;77;21171;-80
2020/12/05 07:05:39;;;;;;;46.18;26.48;;;;;;;-0.75;82.59;93087.73;1783734;78;21489;-82
2020/12/05 07:08:31;;;;;;;47.40;29.93;;;;;;;-0.53;79.21;93085.97;1815059;76;21652;-81
2020/12/05 07:11:13;;;;;;;50.67;31.77;;;;;;;-0.27;77.86;93091.52;1864367;76;21589;-79
2020/12/05 07:13:48;;;;;;;43.20;25.62;;;;;;;0.10;76.47;93078.89;1853165;76;21191;-78
2020/12/05 07:16:24;;;;;;;49.27;26.55;;;;;;;0.40;75.71;93086.63;1835571;76;21317;-80
2020/12/05 07:19:00;;;;;;;55.80;30.23;;;;;;;0.61;72.68;93103.28;1848101;77;21210;-78
2020/12/05 07:21:29;;;;;;;76.80;41.55;;;;;;;0.68;71.62;93100.81;1776952;80;21209;-81
2020/12/05 07:23:59;;;;;;;81.95;43.60;;;;;;;0.77;71.10;93100.66;1750513;80;21787;-80
2020/12/05 07:26:27;;;;;;;61.77;33.92;;;;;;;0.88;70.91;93108.98;1812908;77;21201;-76
2020/12/05 07:28:56;;;;;;;45.70;25.50;;;;;;;1.09;70.40;93102.86;1850585;76;21159;-80
2020/12/05 07:31:25;;;;;;;43.45;27.17;;;;;;;1.42;69.92;93107.12;1833551;78;21506;-81
2020/12/05 07:33:54;;;;;;;47.38;27.65;;;;;;;1.66;69.57;93114.23;1808411;79;21179;-80
2020/12/05 07:36:24;;;;;;;55.60;32.20;;;;;;;1.88;68.11;93114.16;1870895;76;21996;-79
2020/12/05 07:38:54;;;;;;;45.43;26.33;;;;;;;1.85;68.55;93112.97;1834306;76;21187;-79
2020/12/05 07:41:23;;;;;;;54.83;32.40;;;;;;;1.93;68.86;93120.62;1818878;78;21701;-81
2020/12/05 07:43:57;;;;;;;61.70;36.73;;;;;;;2.19;68.32;93120.84;1816053;78;21218;-79
2020/12/05 07:46:27;;;;;;;45.03;28.42;;;;;;;2.46;66.70;93123.72;1809509;79;21505;-78
2020/12/05 07:48:55;;;;;;;36.28;22.70;;;;;;;2.76;66.81;93122.62;1723877;80;21372;-78
2020/12/05 07:51:23;;;;;;;41.80;26.93;;;;;;;3.23;66.49;93117.56;1792590;79;21049;-78
2020/12/05 07:53:51;;;;;;;53.68;34.18;;;;;;;3.78;64.66;93117.38;1829723;77;21185;-79
2020/12/05 07:56:21;;;;;;;44.33;28.17;;;;;;;4.09;61.73;93122.48;1831017;77;21706;-80
2020/12/05 07:58:56;;;;;;;46.88;29.82;;;;;;;4.06;61.41;93121.08;1847492;76;21189;-80
2020/12/05 08:02:05;;;;;;;41.70;26.30;;;;;;;4.06;60.32;93115.70;1830982;76;22019;-79
2020/12/05 08:04:47;;;;;;;37.03;25.00;;;;;;;4.14;61.19;93123.55;1838731;76;21146;-80
2020/12/05 08:07:16;;;;;;;30.85;20.75;;;;;;;4.39;61.23;93123.12;1852128;77;21217;-76
2020/12/05 08:09:45;;;;;;;26.30;17.07;;;;;;;4.61;61.80;93129.02;1776532;80;21183;-78
2020/12/05 08:12:14;;;;;;;16.40;11.45;;;;;;;4.91;60.95;93126.91;1790764;77;21144;-79
2020/12/05 08:14:42;;;;;;;19.42;14.53;;;;;;;5.08;60.35;93127.70;1837314;77;21433;-80
2020/12/05 08:17:11;;;;;;;23.52;16.20;;;;;;;5.08;61.85;93134.44;1829778;78;21148;-77
2020/12/05 08:19:43;;;;;;;29.60;18.65;;;;;;;5.19;60.08;93125.68;1819766;76;21190;-78
2020/12/05 08:22:11;;;;;;;19.20;13.08;;;;;;;5.30;59.93;93136.02;1833996;78;21186;-79
2020/12/05 08:24:51;;;;;;;16.60;11.57;;;;;;;5.52;59.63;93128.94;1846331;76;21166;-84
2020/12/05 08:27:19;;;;;;;14.35;10.85;;;;;;;5.66;60.34;93129.08;1836542;77;21202;-78
2020/12/05 08:29:48;;;;;;;5.67;5.10;;;;;;;5.92;60.33;93124.16;1833985;77;21134;-81
2020/12/05 08:32:18;;;;;;;4.85;4.08;;;;;;;6.06;59.51;93125.63;1833588;78;21163;-81
2020/12/05 08:34:47;;;;;;;45.58;28.73;;;;;;;6.37;59.46;93130.88;1834608;76;21329;-81
2020/12/05 08:37:25;;;;;;;47.73;31.62;;;;;;;6.63;56.48;93129.31;1835859;78;21162;-81
2020/12/05 08:39:56;;;;;;;41.83;26.48;;;;;;;6.80;56.22;93127.27;1854216;77;22055;-79
2020/12/05 08:42:25;;;;;;;38.73;26.68;;;;;;;6.93;56.13;93125.62;1835934;77;21207;-77
2020/12/05 08:44:53;;;;;;;49.53;30.85;;;;;;;7.04;55.88;93127.80;1841668;75;21665;-77
2020/12/05 08:47:22;;;;;;;41.65;28.17;;;;;;;7.12;54.97;93128.02;1840243;77;21195;-79
2020/12/05 08:49:50;;;;;;;44.65;29.07;;;;;;;7.24;55.20;93128.26;1822273;77;21446;-78
2020/12/05 08:52:20;;;;;;;45.10;31.52;;;;;;;7.31;54.68;93132.34;1817047;78;21419;-79
2020/12/05 08:54:50;;;;;;;51.58;35.40;;;;;;;7.29;54.97;93125.95;1855930;77;21217;-79
2020/12/05 08:57:20;;;;;;;42.75;30.68;;;;;;;7.27;54.60;93128.28;1838656;77;21183;-80
2020/12/05 08:59:48;;;;;;;46.53;32.85;;;;;;;7.29;53.99;93125.95;1826340;77;21116;-81
2020/12/05 09:02:16;;;;;;;46.10;33.95;;;;;;;7.38;54.33;93124.84;1808641;77;21208;-80
2020/12/05 09:04:44;;;;;;;43.28;30.75;;;;;;;7.48;54.99;93122.14;1840669;77;21559;-80
2020/12/05 09:07:19;;;;;;;32.80;23.60;;;;;;;7.45;55.17;93120.23;1861534;77;21173;-85
2020/12/05 09:09:48;;;;;;;38.38;25.30;;;;;;;7.30;55.36;93121.34;1828247;77;25927;-80
2020/12/05 09:12:19;;;;;;;33.40;23.77;;;;;;;6.98;56.84;93119.84;1849221;77;21264;-78
2020/12/05 09:14:55;;;;;;;29.18;20.30;;;;;;;6.66;57.90;93122.39;1828134;78;21178;-82
2020/12/05 09:17:24;;;;;;;34.43;21.20;;;;;;;6.39;58.83;93112.35;1801852;79;21190;-82
2020/12/05 09:19:58;;;;;;;30.23;18.35;;;;;;;5.99;60.31;93112.07;1803366;76;21156;-82
2020/12/05 09:22:32;;;;;;;30.08;17.87;;;;;;;5.77;61.73;93099.52;1842425;77;21138;-83
2020/12/05 09:25:05;;;;;;;33.53;22.17;;;;;;;5.78;62.77;93091.61;1851880;77;21166;-78
2020/12/05 09:27:42;;;;;;;26.80;16.42;;;;;;;5.87;62.53;93093.44;1807047;78;21206;-83
2020/12/05 09:30:12;;;;;;;26.20;15.70;;;;;;;5.80;62.82;93088.75;1844053;77;22192;-80
2020/12/05 09:32:43;;;;;;;24.45;15.60;;;;;;;5.78;63.86;93091.61;1841972;77;21218;-81
2020/12/05 09:35:15;;;;;;;25.45;14.90;;;;;;;5.80;64.13;93100.12;1825284;77;21791;-81
2020/12/05 09:37:43;;;;;;;21.37;14.47;;;;;;;5.81;64.91;93101.67;1861241;76;21453;-82
2020/12/05 09:40:13;;;;;;;24.52;14.98;;;;;;;5.80;64.69;93099.55;1841674;77;21229;-81
2020/12/05 09:42:43;;;;;;;21.75;14.28;;;;;;;5.95;64.58;93100.47;1829938;76;21246;-82
2020/12/05 09:45:12;;;;;;;15.88;10.50;;;;;;;6.16;64.58;93095.80;1829891;78;21107;-79
2020/12/05 09:47:41;;;;;;;10.80;8.55;;;;;;;6.32;64.78;93100.37;1832838;77;21248;-79
2020/12/05 09:50:09;;;;;;;6.97;5.08;;;;;;;6.36;65.28;93105.80;1832970;78;21182;-81
2020/12/05 09:52:38;;;;;;;6.78;4.85;;;;;;;6.38;65.42;93100.01;1828340;78;22058;-82
2020/12/05 09:55:06;;;;;;;10.05;7.87;;;;;;;6.39;65.72;93102.90;1802105;78;21352;-83
2020/12/05 09:57:35;;;;;;;14.23;8.58;;;;;;;6.52;66.08;93096.05;1811315;77;21179;-83
2020/12/05 10:00:07;;;;;;;28.62;17.37;;;;;;;6.81;65.58;93099.70;1798153;79;21168;-83
2020/12/05 10:02:39;;;;;;;23.40;13.13;;;;;;;7.14;63.69;93098.66;1833558;77;21190;-82
2020/12/05 10:05:10;;;;;;;35.45;20.72;;;;;;;7.42;62.57;93095.87;1852824;76;21171;-84
2020/12/05 10:07:41;;;;;;;36.50;21.17;;;;;;;7.58;61.53;93108.46;1842240;77;21175;-79
2020/12/05 10:10:10;;;;;;;27.60;17.90;;;;;;;7.51;60.93;93100.33;1866714;75;21124;-83
2020/12/05 10:12:44;;;;;;;29.45;17.82;;;;;;;7.39;60.92;93100.69;1873334;76;21128;-79
2020/12/05 10:15:09;;;;;;;12.28;8.33;;;;;;;7.23;61.40;93096.39;1865540;76;21164;-86
2020/12/05 10:17:37;;;;;;;8.13;5.70;;;;;;;6.96;63.93;93103.24;1845023;77;21698;-82
2020/12/05 10:20:07;;;;;;;5.95;4.10;;;;;;;6.85;64.87;93097.78;1794774;75;40196;-83
2020/12/05 10:22:36;;;;;;;6.87;4.97;;;;;;;6.89;64.83;93096.45;1876208;76;21202;-82
2020/12/05 10:25:06;;;;;;;6.53;5.12;;;;;;;6.91;65.03;93097.59;1856716;76;21663;-83
2020/12/05 10:27:35;;;;;;;5.75;4.50;;;;;;;6.95;65.36;93101.09;1816337;77;21174;-85
2020/12/05 10:30:03;;;;;;;7.20;5.30;;;;;;;6.97;64.80;93098.02;1811173;77;21661;-86
2020/12/05 10:32:31;;;;;;;20.30;13.32;;;;;;;7.02;64.03;93099.77;1833274;77;21679;-81
2020/12/05 10:35:00;;;;;;;78.72;48.92;;;;;;;7.19;64.05;93098.89;1791742;79;21173;-84
2020/12/05 10:37:28;;;;;;;51.95;34.75;;;;;;;7.42;63.36;93095.87;1786142;79;21077;-83
2020/12/05 10:39:57;;;;;;;36.08;24.05;;;;;;;7.51;63.08;93099.74;1800408;79;21154;-82
2020/12/05 10:42:26;;;;;;;29.77;19.17;;;;;;;7.61;62.65;93089.34;1831530;76;21172;-80
2020/12/05 10:44:56;;;;;;;21.55;13.28;;;;;;;7.69;64.11;93097.08;1853607;76;21473;-80
2020/12/05 10:47:24;;;;;;;21.48;10.65;;;;;;;7.73;64.14;93087.62;1866909;76;21170;-82
2020/12/05 10:49:52;;;;;;;109.60;64.25;;;;;;;7.71;64.11;93085.30;1862192;77;21162;-80
2020/12/05 10:52:21;;;;;;;90.03;52.90;;;;;;;7.70;63.07;93082.97;1829876;77;21200;-82
2020/12/05 10:54:49;;;;;;;81.92;46.53;;;;;;;7.59;63.75;93084.30;1806329;78;21184;-84
2020/12/05 10:57:18;;;;;;;67.78;39.65;;;;;;;7.58;63.68;93090.10;1813520;78;21200;-85
2020/12/05 10:59:46;;;;;;;55.83;32.58;;;;;;;7.62;63.50;93084.12;1810695;77;21206;-82
2020/12/05 11:02:15;;;;;;;61.90;37.13;;;;;;;7.73;64.07;93082.20;1761714;80;21137;-80
2020/12/05 11:04:43;;;;;;;55.73;29.12;;;;;;;7.98;63.63;93082.23;1812957;77;21518;-81
2020/12/05 11:07:12;;;;;;;44.10;23.95;;;;;;;8.11;63.06;93085.31;1819270;77;21161;-77
2020/12/05 11:09:41;;;;;;;43.28;23.55;;;;;;;8.21;62.22;93083.20;1826907;77;22136;-81
2020/12/05 11:12:10;;;;;;;41.95;23.65;;;;;;;8.32;61.87;93081.25;1833284;76;21133;-80
2020/12/05 11:14:38;;;;;;;80.15;47.50;;;;;;;8.42;62.14;93072.94;1830946;77;21155;-81
2020/12/05 11:17:06;;;;;;;100.25;57.62;;;;;;;8.51;61.96;93074.68;1807872;78;21170;-80
2020/12/05 11:19:34;;;;;;;60.15;36.48;;;;;;;8.38;61.79;93072.94;1830644;78;21153;-77
2020/12/05 11:22:02;;;;;;;39.67;25.75;;;;;;;8.22;62.20;93077.97;1812114;78;21199;-82
2020/12/05 11:24:31;;;;;;;37.67;23.57;;;;;;;8.26;62.88;93075.44;1825631;78;21371;-83
2020/12/05 11:26:59;;;;;;;34.73;23.38;;;;;;;8.45;62.92;93081.64;1839879;77;21173;-84
2020/12/05 11:29:27;;;;;;;37.05;22.62;;;;;;;8.62;62.85;93081.44;1835378;78;21174;-84
2020/12/05 11:31:55;;;;;;;25.40;16.15;;;;;;;8.74;62.80;93077.72;1868396;76;21180;-82
2020/12/05 11:34:23;;;;;;;32.28;21.93;;;;;;;8.90;62.51;93081.94;1841583;76;21173;-81
2020/12/05 11:36:52;;;;;;;39.15;19.85;;;;;;;9.06;62.20;93078.19;1834171;77;21161;-79
2020/12/05 11:39:21;;;;;;;51.73;35.60;;;;;;;9.25;61.72;93075.59;1832785;78;21205;-81